sensor_id;sensor_type;location;lat;lon;timestamp;P1;durP1;ratioP1;P2;durP2;ratioP2
42726;SDS011;28372;56.832;60.658;2024-01-30T00:01:31;20.17;;;7.45;;
42726;SDS011;28372;56.832;60.658;2024-01-30T00:03:59;18.98;;;8.30;;
42726;SDS011;28372;56.832;60.658;2024-01-30T00:06:26;18.35;;;7.55;;
42726;SDS011;28372;56.832;60.658;2024-01-30T00:08:54;17.35;;;7.43;;
42726;SDS011;28372;56.832;60.658;2024-01-30T00:11:23;20.33;;;8.00;;
42726;SDS011;28372;56.832;60.658;2024-01-30T00:13:54;17.05;;;7.72;;
42726;SDS011;28372;56.832;60.658;2024-01-30T00:16:28;20.30;;;8.20;;
42726;SDS011;28372;56.832;60.658;2024-01-30T00:18:57;18.75;;;8.15;;
42726;SDS011;28372;56.832;60.658;2024-01-30T00:21:25;18.65;;;8.20;;
42726;SDS011;28372;56.832;60.658;2024-01-30T00:23:53;14.32;;;7.20;;
42726;SDS011;28372;56.832;60.658;2024-01-30T00:26:22;18.27;;;7.20;;
42726;SDS011;28372;56.832;60.658;2024-01-30T00:28:51;14.73;;;7.20;;
42726;SDS011;28372;56.832;60.658;2024-01-30T00:31:19;18.80;;;7.65;;
42726;SDS011;28372;56.832;60.658;2024-01-30T00:33:46;18.10;;;7.65;;
42726;SDS011;28372;56.832;60.658;2024-01-30T00:36:15;18.90;;;8.23;;
42726;SDS011;28372;56.832;60.658;2024-01-30T00:38:43;16.80;;;7.90;;
42726;SDS011;28372;56.832;60.658;2024-01-30T00:41:12;15.75;;;6.88;;
42726;SDS011;28372;56.832;60.658;2024-01-30T00:43:39;17.13;;;7.13;;
42726;SDS011;28372;56.832;60.658;2024-01-30T00:46:07;18.58;;;7.55;;
42726;SDS011;28372;56.832;60.658;2024-01-30T00:48:35;16.38;;;7.63;;
42726;SDS011;28372;56.832;60.658;2024-01-30T00:51:03;20.70;;;8.35;;
42726;SDS011;28372;56.832;60.658;2024-01-30T00:53:31;18.35;;;7.82;;
42726;SDS011;28372;56.832;60.658;2024-01-30T00:56:00;16.98;;;7.95;;
42726;SDS011;28372;56.832;60.658;2024-01-30T00:58:27;19.90;;;8.52;;
42726;SDS011;28372;56.832;60.658;2024-01-30T01:00:55;17.92;;;7.55;;
42726;SDS011;28372;56.832;60.658;2024-01-30T01:03:23;18.73;;;7.70;;
42726;SDS011;28372;56.832;60.658;2024-01-30T01:05:51;17.40;;;7.20;;
42726;SDS011;28372;56.832;60.658;2024-01-30T01:08:19;16.27;;;7.60;;
42726;SDS011;28372;56.832;60.658;2024-01-30T01:10:48;20.10;;;7.90;;
42726;SDS011;28372;56.832;60.658;2024-01-30T01:13:16;15.50;;;7.47;;
42726;SDS011;28372;56.832;60.658;2024-01-30T01:15:44;15.32;;;6.95;;
42726;SDS011;28372;56.832;60.658;2024-01-30T01:18:12;18.23;;;7.65;;
42726;SDS011;28372;56.832;60.658;2024-01-30T01:20:40;17.60;;;7.90;;
42726;SDS011;28372;56.832;60.658;2024-01-30T01:23:11;18.10;;;7.63;;
42726;SDS011;28372;56.832;60.658;2024-01-30T01:25:40;17.30;;;7.57;;
42726;SDS011;28372;56.832;60.658;2024-01-30T01:28:10;16.17;;;7.35;;
42726;SDS011;28372;56.832;60.658;2024-01-30T01:30:40;19.13;;;7.47;;
42726;SDS011;28372;56.832;60.658;2024-01-30T01:33:09;17.15;;;7.88;;
42726;SDS011;28372;56.832;60.658;2024-01-30T01:35:37;18.55;;;7.53;;
42726;SDS011;28372;56.832;60.658;2024-01-30T01:38:06;15.85;;;7.57;;
42726;SDS011;28372;56.832;60.658;2024-01-30T01:40:34;17.73;;;7.50;;
42726;SDS011;28372;56.832;60.658;2024-01-30T01:43:03;19.88;;;7.45;;
42726;SDS011;28372;56.832;60.658;2024-01-30T01:45:32;16.80;;;7.65;;
42726;SDS011;28372;56.832;60.658;2024-01-30T01:48:00;19.40;;;7.72;;
42726;SDS011;28372;56.832;60.658;2024-01-30T01:50:28;18.23;;;7.65;;
42726;SDS011;28372;56.832;60.658;2024-01-30T01:52:58;15.50;;;7.60;;
42726;SDS011;28372;56.832;60.658;2024-01-30T01:55:27;17.15;;;7.75;;
42726;SDS011;28372;56.832;60.658;2024-01-30T01:57:57;19.10;;;8.80;;
42726;SDS011;28372;56.832;60.658;2024-01-30T02:00:25;18.63;;;7.85;;
42726;SDS011;28372;56.832;60.658;2024-01-30T02:02:54;16.35;;;7.72;;
42726;SDS011;28372;56.832;60.658;2024-01-30T02:05:23;19.80;;;8.45;;
42726;SDS011;28372;56.832;60.658;2024-01-30T02:07:56;17.33;;;7.88;;
42726;SDS011;28372;56.832;60.658;2024-01-30T02:10:30;19.85;;;8.30;;
42726;SDS011;28372;56.832;60.658;2024-01-30T02:12:59;16.45;;;8.15;;
42726;SDS011;28372;56.832;60.658;2024-01-30T02:15:26;17.13;;;8.55;;
42726;SDS011;28372;56.832;60.658;2024-01-30T02:18:00;21.08;;;8.15;;
42726;SDS011;28372;56.832;60.658;2024-01-30T02:20:50;21.88;;;8.73;;
42726;SDS011;28372;56.832;60.658;2024-01-30T02:23:24;19.73;;;8.48;;
42726;SDS011;28372;56.832;60.658;2024-01-30T02:25:53;17.73;;;8.02;;
42726;SDS011;28372;56.832;60.658;2024-01-30T02:28:23;19.27;;;8.02;;
42726;SDS011;28372;56.832;60.658;2024-01-30T02:30:53;20.58;;;7.88;;
42726;SDS011;28372;56.832;60.658;2024-01-30T02:33:21;19.08;;;8.57;;
42726;SDS011;28372;56.832;60.658;2024-01-30T02:35:49;20.35;;;8.95;;
42726;SDS011;28372;56.832;60.658;2024-01-30T02:38:16;19.95;;;8.85;;
42726;SDS011;28372;56.832;60.658;2024-01-30T02:40:44;19.52;;;8.57;;
42726;SDS011;28372;56.832;60.658;2024-01-30T02:43:12;17.65;;;7.95;;
42726;SDS011;28372;56.832;60.658;2024-01-30T02:45:41;18.05;;;8.57;;
42726;SDS011;28372;56.832;60.658;2024-01-30T02:48:10;18.10;;;8.15;;
42726;SDS011;28372;56.832;60.658;2024-01-30T02:50:40;19.20;;;8.20;;
42726;SDS011;28372;56.832;60.658;2024-01-30T02:53:08;17.95;;;7.82;;
42726;SDS011;28372;56.832;60.658;2024-01-30T02:55:36;17.23;;;8.75;;
42726;SDS011;28372;56.832;60.658;2024-01-30T02:58:05;18.30;;;8.13;;
42726;SDS011;28372;56.832;60.658;2024-01-30T03:00:34;17.25;;;8.05;;
42726;SDS011;28372;56.832;60.658;2024-01-30T03:03:02;18.98;;;8.75;;
42726;SDS011;28372;56.832;60.658;2024-01-30T03:05:30;22.35;;;8.90;;
42726;SDS011;28372;56.832;60.658;2024-01-30T03:07:58;19.05;;;8.60;;
42726;SDS011;28372;56.832;60.658;2024-01-30T03:10:26;17.15;;;7.90;;
42726;SDS011;28372;56.832;60.658;2024-01-30T03:12:55;17.58;;;7.30;;
42726;SDS011;28372;56.832;60.658;2024-01-30T03:15:23;17.60;;;8.43;;
42726;SDS011;28372;56.832;60.658;2024-01-30T03:17:51;21.17;;;8.57;;
42726;SDS011;28372;56.832;60.658;2024-01-30T03:20:19;20.52;;;8.52;;
42726;SDS011;28372;56.832;60.658;2024-01-30T03:22:46;18.13;;;8.55;;
42726;SDS011;28372;56.832;60.658;2024-01-30T03:25:15;20.27;;;8.60;;
42726;SDS011;28372;56.832;60.658;2024-01-30T03:27:46;18.27;;;8.07;;
42726;SDS011;28372;56.832;60.658;2024-01-30T03:30:14;20.95;;;9.18;;
42726;SDS011;28372;56.832;60.658;2024-01-30T03:32:44;20.13;;;8.02;;
42726;SDS011;28372;56.832;60.658;2024-01-30T03:35:14;20.20;;;7.93;;
42726;SDS011;28372;56.832;60.658;2024-01-30T03:37:42;17.85;;;7.45;;
42726;SDS011;28372;56.832;60.658;2024-01-30T03:40:10;18.58;;;7.88;;
42726;SDS011;28372;56.832;60.658;2024-01-30T03:42:40;16.75;;;7.57;;
42726;SDS011;28372;56.832;60.658;2024-01-30T03:45:09;20.40;;;8.05;;
42726;SDS011;28372;56.832;60.658;2024-01-30T03:47:37;19.30;;;8.27;;
42726;SDS011;28372;56.832;60.658;2024-01-30T03:50:05;16.92;;;7.68;;
42726;SDS011;28372;56.832;60.658;2024-01-30T03:52:33;19.70;;;8.23;;
42726;SDS011;28372;56.832;60.658;2024-01-30T03:55:00;15.85;;;7.22;;
42726;SDS011;28372;56.832;60.658;2024-01-30T03:57:29;17.48;;;7.15;;
42726;SDS011;28372;56.832;60.658;2024-01-30T03:59:57;18.58;;;7.85;;
42726;SDS011;28372;56.832;60.658;2024-01-30T04:02:38;18.48;;;7.65;;
42726;SDS011;28372;56.832;60.658;2024-01-30T04:05:07;19.08;;;7.40;;
42726;SDS011;28372;56.832;60.658;2024-01-30T04:07:35;18.92;;;8.35;;
42726;SDS011;28372;56.832;60.658;2024-01-30T04:10:03;17.23;;;8.18;;
42726;SDS011;28372;56.832;60.658;2024-01-30T04:12:33;18.88;;;8.68;;
42726;SDS011;28372;56.832;60.658;2024-01-30T04:15:02;21.35;;;8.48;;
42726;SDS011;28372;56.832;60.658;2024-01-30T04:17:31;18.13;;;7.95;;
42726;SDS011;28372;56.832;60.658;2024-01-30T04:19:59;18.98;;;8.50;;
42726;SDS011;28372;56.832;60.658;2024-01-30T04:22:30;17.63;;;8.10;;
42726;SDS011;28372;56.832;60.658;2024-01-30T04:25:00;15.60;;;7.07;;
42726;SDS011;28372;56.832;60.658;2024-01-30T04:27:29;20.73;;;8.90;;
42726;SDS011;28372;56.832;60.658;2024-01-30T04:29:59;21.83;;;9.23;;
42726;SDS011;28372;56.832;60.658;2024-01-30T04:32:31;16.80;;;7.85;;
42726;SDS011;28372;56.832;60.658;2024-01-30T04:35:00;17.70;;;8.00;;
42726;SDS011;28372;56.832;60.658;2024-01-30T04:37:31;21.15;;;9.07;;
42726;SDS011;28372;56.832;60.658;2024-01-30T04:40:00;20.08;;;8.43;;
42726;SDS011;28372;56.832;60.658;2024-01-30T04:42:29;18.75;;;8.60;;
42726;SDS011;28372;56.832;60.658;2024-01-30T04:45:00;20.65;;;7.63;;
42726;SDS011;28372;56.832;60.658;2024-01-30T04:47:31;15.48;;;7.18;;
42726;SDS011;28372;56.832;60.658;2024-01-30T04:50:01;18.00;;;7.28;;
42726;SDS011;28372;56.832;60.658;2024-01-30T04:52:35;17.92;;;7.97;;
42726;SDS011;28372;56.832;60.658;2024-01-30T04:55:36;19.58;;;8.13;;
42726;SDS011;28372;56.832;60.658;2024-01-30T04:58:04;18.05;;;7.72;;
42726;SDS011;28372;56.832;60.658;2024-01-30T05:00:35;15.60;;;7.03;;
42726;SDS011;28372;56.832;60.658;2024-01-30T05:03:03;18.75;;;7.60;;
42726;SDS011;28372;56.832;60.658;2024-01-30T05:05:31;19.95;;;8.95;;
42726;SDS011;28372;56.832;60.658;2024-01-30T05:07:59;19.30;;;8.85;;
42726;SDS011;28372;56.832;60.658;2024-01-30T05:10:27;14.77;;;7.38;;
42726;SDS011;28372;56.832;60.658;2024-01-30T05:12:56;15.98;;;7.15;;
42726;SDS011;28372;56.832;60.658;2024-01-30T05:15:24;17.08;;;7.10;;
42726;SDS011;28372;56.832;60.658;2024-01-30T05:17:53;17.42;;;7.25;;
42726;SDS011;28372;56.832;60.658;2024-01-30T05:20:21;17.38;;;8.13;;
42726;SDS011;28372;56.832;60.658;2024-01-30T05:22:49;17.83;;;8.38;;
42726;SDS011;28372;56.832;60.658;2024-01-30T05:25:17;18.25;;;7.68;;
42726;SDS011;28372;56.832;60.658;2024-01-30T05:27:45;18.23;;;7.97;;
42726;SDS011;28372;56.832;60.658;2024-01-30T05:30:13;21.50;;;7.68;;
42726;SDS011;28372;56.832;60.658;2024-01-30T05:32:41;21.70;;;8.35;;
42726;SDS011;28372;56.832;60.658;2024-01-30T05:35:12;17.58;;;8.13;;
42726;SDS011;28372;56.832;60.658;2024-01-30T05:37:41;16.13;;;7.30;;
42726;SDS011;28372;56.832;60.658;2024-01-30T05:40:09;20.75;;;9.25;;
42726;SDS011;28372;56.832;60.658;2024-01-30T05:42:41;20.75;;;8.27;;
42726;SDS011;28372;56.832;60.658;2024-01-30T05:45:09;21.92;;;8.20;;
42726;SDS011;28372;56.832;60.658;2024-01-30T05:47:36;15.35;;;6.50;;
42726;SDS011;28372;56.832;60.658;2024-01-30T05:50:04;20.30;;;8.95;;
42726;SDS011;28372;56.832;60.658;2024-01-30T05:52:33;28.67;;;10.20;;
42726;SDS011;28372;56.832;60.658;2024-01-30T05:55:04;15.68;;;7.55;;
42726;SDS011;28372;56.832;60.658;2024-01-30T05:57:33;32.05;;;10.30;;
42726;SDS011;28372;56.832;60.658;2024-01-30T06:00:01;24.90;;;10.02;;
42726;SDS011;28372;56.832;60.658;2024-01-30T06:02:33;28.90;;;9.80;;
42726;SDS011;28372;56.832;60.658;2024-01-30T06:05:02;25.13;;;10.30;;
42726;SDS011;28372;56.832;60.658;2024-01-30T06:07:30;25.02;;;9.65;;
42726;SDS011;28372;56.832;60.658;2024-01-30T06:10:03;23.33;;;9.57;;
42726;SDS011;28372;56.832;60.658;2024-01-30T06:12:37;26.20;;;10.18;;
42726;SDS011;28372;56.832;60.658;2024-01-30T06:15:05;20.55;;;8.82;;
42726;SDS011;28372;56.832;60.658;2024-01-30T06:17:34;25.30;;;9.45;;
42726;SDS011;28372;56.832;60.658;2024-01-30T06:20:04;24.77;;;11.07;;
42726;SDS011;28372;56.832;60.658;2024-01-30T06:22:34;22.20;;;9.45;;
42726;SDS011;28372;56.832;60.658;2024-01-30T06:25:02;19.38;;;8.80;;
42726;SDS011;28372;56.832;60.658;2024-01-30T06:27:31;23.33;;;9.70;;
42726;SDS011;28372;56.832;60.658;2024-01-30T06:30:01;20.02;;;8.55;;
42726;SDS011;28372;56.832;60.658;2024-01-30T06:32:30;21.17;;;8.82;;
42726;SDS011;28372;56.832;60.658;2024-01-30T06:35:02;20.00;;;7.97;;
42726;SDS011;28372;56.832;60.658;2024-01-30T06:37:32;18.77;;;8.43;;
42726;SDS011;28372;56.832;60.658;2024-01-30T06:40:03;19.88;;;7.60;;
42726;SDS011;28372;56.832;60.658;2024-01-30T06:42:52;16.50;;;7.30;;
42726;SDS011;28372;56.832;60.658;2024-01-30T06:45:24;16.40;;;6.57;;
42726;SDS011;28372;56.832;60.658;2024-01-30T06:47:56;17.85;;;7.30;;
42726;SDS011;28372;56.832;60.658;2024-01-30T06:50:23;17.27;;;7.00;;
42726;SDS011;28372;56.832;60.658;2024-01-30T06:52:51;18.27;;;8.27;;
42726;SDS011;28372;56.832;60.658;2024-01-30T06:55:19;19.17;;;8.18;;
42726;SDS011;28372;56.832;60.658;2024-01-30T06:57:47;20.10;;;8.25;;
42726;SDS011;28372;56.832;60.658;2024-01-30T07:00:17;17.17;;;6.95;;
42726;SDS011;28372;56.832;60.658;2024-01-30T07:02:46;19.75;;;8.88;;
42726;SDS011;28372;56.832;60.658;2024-01-30T07:05:16;17.27;;;7.53;;
42726;SDS011;28372;56.832;60.658;2024-01-30T07:07:45;19.25;;;7.93;;
42726;SDS011;28372;56.832;60.658;2024-01-30T07:10:13;15.85;;;8.63;;
42726;SDS011;28372;56.832;60.658;2024-01-30T07:12:43;18.60;;;7.38;;
42726;SDS011;28372;56.832;60.658;2024-01-30T07:15:13;13.82;;;6.20;;
42726;SDS011;28372;56.832;60.658;2024-01-30T07:17:44;17.67;;;7.78;;
42726;SDS011;28372;56.832;60.658;2024-01-30T07:20:14;17.67;;;8.80;;
42726;SDS011;28372;56.832;60.658;2024-01-30T07:22:47;17.38;;;7.93;;
42726;SDS011;28372;56.832;60.658;2024-01-30T07:25:15;15.48;;;7.35;;
42726;SDS011;28372;56.832;60.658;2024-01-30T07:27:48;16.50;;;7.28;;
42726;SDS011;28372;56.832;60.658;2024-01-30T07:30:17;14.52;;;6.05;;
42726;SDS011;28372;56.832;60.658;2024-01-30T07:32:46;16.25;;;6.88;;
42726;SDS011;28372;56.832;60.658;2024-01-30T07:35:14;20.15;;;8.25;;
42726;SDS011;28372;56.832;60.658;2024-01-30T07:37:42;18.35;;;9.02;;
42726;SDS011;28372;56.832;60.658;2024-01-30T07:40:11;17.50;;;7.22;;
42726;SDS011;28372;56.832;60.658;2024-01-30T07:42:44;20.52;;;10.55;;
42726;SDS011;28372;56.832;60.658;2024-01-30T07:45:13;17.88;;;7.30;;
42726;SDS011;28372;56.832;60.658;2024-01-30T07:47:43;20.05;;;9.32;;
42726;SDS011;28372;56.832;60.658;2024-01-30T07:50:11;18.80;;;7.93;;
42726;SDS011;28372;56.832;60.658;2024-01-30T07:52:39;22.15;;;7.78;;
42726;SDS011;28372;56.832;60.658;2024-01-30T07:58:41;19.45;;;8.20;;
42726;SDS011;28372;56.832;60.658;2024-01-30T08:01:11;20.38;;;8.80;;
42726;SDS011;28372;56.832;60.658;2024-01-30T08:03:40;16.23;;;6.45;;
42726;SDS011;28372;56.832;60.658;2024-01-30T08:06:09;22.73;;;9.93;;
42726;SDS011;28372;56.832;60.658;2024-01-30T08:08:37;23.73;;;10.73;;
42726;SDS011;28372;56.832;60.658;2024-01-30T08:11:07;24.15;;;10.32;;
42726;SDS011;28372;56.832;60.658;2024-01-30T08:13:37;16.05;;;6.97;;
42726;SDS011;28372;56.832;60.658;2024-01-30T08:16:05;21.30;;;9.52;;
42726;SDS011;28372;56.832;60.658;2024-01-30T08:18:35;18.85;;;8.30;;
42726;SDS011;28372;56.832;60.658;2024-01-30T08:21:03;16.77;;;7.50;;
42726;SDS011;28372;56.832;60.658;2024-01-30T08:23:33;13.95;;;6.30;;
42726;SDS011;28372;56.832;60.658;2024-01-30T08:26:02;23.33;;;8.52;;
42726;SDS011;28372;56.832;60.658;2024-01-30T08:28:32;12.98;;;6.53;;
42726;SDS011;28372;56.832;60.658;2024-01-30T08:31:00;19.63;;;8.68;;
42726;SDS011;28372;56.832;60.658;2024-01-30T08:33:30;15.27;;;5.97;;
42726;SDS011;28372;56.832;60.658;2024-01-30T08:35:59;23.80;;;8.85;;
42726;SDS011;28372;56.832;60.658;2024-01-30T08:38:27;16.13;;;7.55;;
42726;SDS011;28372;56.832;60.658;2024-01-30T08:40:55;17.55;;;7.85;;
42726;SDS011;28372;56.832;60.658;2024-01-30T08:43:24;20.65;;;6.15;;
42726;SDS011;28372;56.832;60.658;2024-01-30T08:45:53;14.63;;;7.53;;
42726;SDS011;28372;56.832;60.658;2024-01-30T08:48:21;12.70;;;5.88;;
42726;SDS011;28372;56.832;60.658;2024-01-30T08:50:50;17.33;;;7.75;;
42726;SDS011;28372;56.832;60.658;2024-01-30T08:53:17;21.33;;;7.85;;
42726;SDS011;28372;56.832;60.658;2024-01-30T08:55:46;17.63;;;7.53;;
42726;SDS011;28372;56.832;60.658;2024-01-30T08:58:13;11.52;;;4.88;;
42726;SDS011;28372;56.832;60.658;2024-01-30T09:00:43;8.10;;;3.42;;
42726;SDS011;28372;56.832;60.658;2024-01-30T09:03:11;11.13;;;4.65;;
42726;SDS011;28372;56.832;60.658;2024-01-30T09:05:39;11.98;;;4.25;;
42726;SDS011;28372;56.832;60.658;2024-01-30T09:08:06;14.35;;;6.30;;
42726;SDS011;28372;56.832;60.658;2024-01-30T09:10:34;14.13;;;5.85;;
42726;SDS011;28372;56.832;60.658;2024-01-30T09:13:02;15.05;;;6.30;;
42726;SDS011;28372;56.832;60.658;2024-01-30T09:15:32;8.82;;;3.65;;
42726;SDS011;28372;56.832;60.658;2024-01-30T09:18:00;8.68;;;4.30;;
42726;SDS011;28372;56.832;60.658;2024-01-30T09:20:31;12.90;;;5.60;;
42726;SDS011;28372;56.832;60.658;2024-01-30T09:23:01;14.13;;;6.38;;
42726;SDS011;28372;56.832;60.658;2024-01-30T09:25:28;13.65;;;6.32;;
42726;SDS011;28372;56.832;60.658;2024-01-30T09:27:56;12.35;;;5.15;;
42726;SDS011;28372;56.832;60.658;2024-01-30T09:30:24;14.15;;;6.28;;
42726;SDS011;28372;56.832;60.658;2024-01-30T09:32:52;13.27;;;6.32;;
42726;SDS011;28372;56.832;60.658;2024-01-30T09:35:20;12.95;;;5.63;;
42726;SDS011;28372;56.832;60.658;2024-01-30T09:37:48;10.48;;;5.25;;
42726;SDS011;28372;56.832;60.658;2024-01-30T09:40:17;11.25;;;5.57;;
42726;SDS011;28372;56.832;60.658;2024-01-30T09:42:47;13.02;;;5.28;;
42726;SDS011;28372;56.832;60.658;2024-01-30T09:45:18;3.38;;;1.85;;
42726;SDS011;28372;56.832;60.658;2024-01-30T09:47:48;9.77;;;4.20;;
42726;SDS011;28372;56.832;60.658;2024-01-30T09:50:16;7.65;;;3.78;;
42726;SDS011;28372;56.832;60.658;2024-01-30T09:52:44;10.10;;;4.63;;
42726;SDS011;28372;56.832;60.658;2024-01-30T09:55:14;12.70;;;4.00;;
42726;SDS011;28372;56.832;60.658;2024-01-30T09:57:43;7.28;;;3.00;;
42726;SDS011;28372;56.832;60.658;2024-01-30T10:00:14;6.70;;;2.63;;
42726;SDS011;28372;56.832;60.658;2024-01-30T10:02:42;7.63;;;3.25;;
42726;SDS011;28372;56.832;60.658;2024-01-30T10:08:06;7.63;;;3.20;;
42726;SDS011;28372;56.832;60.658;2024-01-30T10:10:39;11.02;;;3.67;;
42726;SDS011;28372;56.832;60.658;2024-01-30T10:13:09;6.30;;;2.33;;
42726;SDS011;28372;56.832;60.658;2024-01-30T10:15:38;5.88;;;2.33;;
42726;SDS011;28372;56.832;60.658;2024-01-30T10:18:10;6.85;;;3.25;;
42726;SDS011;28372;56.832;60.658;2024-01-30T10:20:39;8.80;;;3.88;;
42726;SDS011;28372;56.832;60.658;2024-01-30T10:23:08;9.30;;;4.72;;
42726;SDS011;28372;56.832;60.658;2024-01-30T10:25:36;9.50;;;3.50;;
42726;SDS011;28372;56.832;60.658;2024-01-30T10:28:05;8.88;;;3.45;;
42726;SDS011;28372;56.832;60.658;2024-01-30T10:30:33;7.47;;;3.55;;
42726;SDS011;28372;56.832;60.658;2024-01-30T10:33:01;5.68;;;2.80;;
42726;SDS011;28372;56.832;60.658;2024-01-30T10:35:31;8.93;;;4.32;;
42726;SDS011;28372;56.832;60.658;2024-01-30T10:38:01;8.55;;;4.07;;
42726;SDS011;28372;56.832;60.658;2024-01-30T10:40:30;5.20;;;2.33;;
42726;SDS011;28372;56.832;60.658;2024-01-30T10:43:18;12.73;;;3.53;;
42726;SDS011;28372;56.832;60.658;2024-01-30T10:45:52;5.65;;;3.22;;
42726;SDS011;28372;56.832;60.658;2024-01-30T10:48:24;7.40;;;3.42;;
42726;SDS011;28372;56.832;60.658;2024-01-30T10:50:59;7.82;;;3.25;;
42726;SDS011;28372;56.832;60.658;2024-01-30T10:53:28;5.60;;;2.08;;
42726;SDS011;28372;56.832;60.658;2024-01-30T10:55:59;8.35;;;3.00;;
42726;SDS011;28372;56.832;60.658;2024-01-30T10:58:30;9.18;;;3.05;;
42726;SDS011;28372;56.832;60.658;2024-01-30T11:00:58;7.03;;;2.58;;
42726;SDS011;28372;56.832;60.658;2024-01-30T11:03:30;9.40;;;2.88;;
42726;SDS011;28372;56.832;60.658;2024-01-30T11:06:02;5.25;;;2.78;;
42726;SDS011;28372;56.832;60.658;2024-01-30T11:08:32;7.15;;;3.28;;
42726;SDS011;28372;56.832;60.658;2024-01-30T11:11:02;6.85;;;2.70;;
42726;SDS011;28372;56.832;60.658;2024-01-30T11:13:41;4.32;;;1.27;;
42726;SDS011;28372;56.832;60.658;2024-01-30T11:16:10;16.75;;;3.05;;
42726;SDS011;28372;56.832;60.658;2024-01-30T11:18:38;8.65;;;2.63;;
42726;SDS011;28372;56.832;60.658;2024-01-30T11:21:07;6.88;;;2.72;;
42726;SDS011;28372;56.832;60.658;2024-01-30T11:23:34;2.00;;;1.17;;
42726;SDS011;28372;56.832;60.658;2024-01-30T11:26:05;9.15;;;2.97;;
42726;SDS011;28372;56.832;60.658;2024-01-30T11:28:35;2.47;;;1.40;;
42726;SDS011;28372;56.832;60.658;2024-01-30T11:31:05;4.32;;;2.33;;
42726;SDS011;28372;56.832;60.658;2024-01-30T11:33:35;4.43;;;1.58;;
42726;SDS011;28372;56.832;60.658;2024-01-30T11:36:03;4.28;;;1.95;;
42726;SDS011;28372;56.832;60.658;2024-01-30T11:38:35;3.05;;;1.33;;
42726;SDS011;28372;56.832;60.658;2024-01-30T11:41:05;5.55;;;3.00;;
42726;SDS011;28372;56.832;60.658;2024-01-30T11:43:33;7.88;;;2.90;;
42726;SDS011;28372;56.832;60.658;2024-01-30T11:46:02;6.30;;;2.33;;
42726;SDS011;28372;56.832;60.658;2024-01-30T11:48:34;3.90;;;1.95;;
42726;SDS011;28372;56.832;60.658;2024-01-30T11:51:02;3.72;;;1.98;;
42726;SDS011;28372;56.832;60.658;2024-01-30T11:53:30;5.05;;;2.80;;
42726;SDS011;28372;56.832;60.658;2024-01-30T11:55:57;10.57;;;3.65;;
42726;SDS011;28372;56.832;60.658;2024-01-30T11:58:25;8.48;;;3.17;;
42726;SDS011;28372;56.832;60.658;2024-01-30T12:00:54;4.22;;;1.70;;
42726;SDS011;28372;56.832;60.658;2024-01-30T12:03:23;4.78;;;2.47;;
42726;SDS011;28372;56.832;60.658;2024-01-30T12:05:56;6.10;;;2.78;;
42726;SDS011;28372;56.832;60.658;2024-01-30T12:08:26;4.82;;;2.22;;
42726;SDS011;28372;56.832;60.658;2024-01-30T12:10:58;5.68;;;2.55;;
42726;SDS011;28372;56.832;60.658;2024-01-30T12:13:27;6.63;;;2.95;;
42726;SDS011;28372;56.832;60.658;2024-01-30T12:16:02;6.00;;;2.92;;
42726;SDS011;28372;56.832;60.658;2024-01-30T12:18:31;5.45;;;2.53;;
42726;SDS011;28372;56.832;60.658;2024-01-30T12:21:02;6.30;;;2.83;;
42726;SDS011;28372;56.832;60.658;2024-01-30T12:23:31;7.30;;;2.10;;
42726;SDS011;28372;56.832;60.658;2024-01-30T12:25:58;7.97;;;2.30;;
42726;SDS011;28372;56.832;60.658;2024-01-30T12:28:26;7.78;;;2.88;;
42726;SDS011;28372;56.832;60.658;2024-01-30T12:31:00;4.75;;;2.20;;
42726;SDS011;28372;56.832;60.658;2024-01-30T12:33:30;4.28;;;1.90;;
42726;SDS011;28372;56.832;60.658;2024-01-30T12:36:03;4.15;;;1.85;;
42726;SDS011;28372;56.832;60.658;2024-01-30T12:38:32;4.43;;;2.30;;
42726;SDS011;28372;56.832;60.658;2024-01-30T12:41:01;3.33;;;1.75;;
42726;SDS011;28372;56.832;60.658;2024-01-30T12:43:29;5.85;;;2.92;;
42726;SDS011;28372;56.832;60.658;2024-01-30T12:46:05;8.98;;;3.67;;
42726;SDS011;28372;56.832;60.658;2024-01-30T12:48:34;5.22;;;2.90;;
42726;SDS011;28372;56.832;60.658;2024-01-30T12:51:02;5.85;;;2.10;;
42726;SDS011;28372;56.832;60.658;2024-01-30T12:53:30;6.75;;;2.20;;
42726;SDS011;28372;56.832;60.658;2024-01-30T12:55:58;11.25;;;4.25;;
42726;SDS011;28372;56.832;60.658;2024-01-30T12:58:25;9.27;;;2.75;;
42726;SDS011;28372;56.832;60.658;2024-01-30T13:00:54;9.00;;;3.70;;
42726;SDS011;28372;56.832;60.658;2024-01-30T13:03:23;6.50;;;3.15;;
42726;SDS011;28372;56.832;60.658;2024-01-30T13:05:51;6.53;;;2.60;;
42726;SDS011;28372;56.832;60.658;2024-01-30T13:08:18;10.00;;;3.53;;
42726;SDS011;28372;56.832;60.658;2024-01-30T13:10:46;6.22;;;2.70;;
42726;SDS011;28372;56.832;60.658;2024-01-30T13:13:17;8.38;;;3.30;;
42726;SDS011;28372;56.832;60.658;2024-01-30T13:15:47;4.20;;;2.00;;
42726;SDS011;28372;56.832;60.658;2024-01-30T13:18:19;4.22;;;1.95;;
42726;SDS011;28372;56.832;60.658;2024-01-30T13:20:47;6.75;;;2.67;;
42726;SDS011;28372;56.832;60.658;2024-01-30T13:23:17;4.70;;;2.13;;
42726;SDS011;28372;56.832;60.658;2024-01-30T13:25:44;5.80;;;2.50;;
42726;SDS011;28372;56.832;60.658;2024-01-30T13:28:13;2.78;;;1.70;;
42726;SDS011;28372;56.832;60.658;2024-01-30T13:30:44;5.15;;;2.25;;
42726;SDS011;28372;56.832;60.658;2024-01-30T13:33:12;5.35;;;2.28;;
42726;SDS011;28372;56.832;60.658;2024-01-30T13:35:40;7.15;;;3.55;;
42726;SDS011;28372;56.832;60.658;2024-01-30T13:38:08;7.07;;;2.95;;
42726;SDS011;28372;56.832;60.658;2024-01-30T13:40:37;7.03;;;2.45;;
42726;SDS011;28372;56.832;60.658;2024-01-30T13:43:05;5.85;;;2.35;;
42726;SDS011;28372;56.832;60.658;2024-01-30T13:45:33;6.00;;;2.83;;
42726;SDS011;28372;56.832;60.658;2024-01-30T13:48:03;10.23;;;4.60;;
42726;SDS011;28372;56.832;60.658;2024-01-30T13:50:31;5.90;;;2.60;;
42726;SDS011;28372;56.832;60.658;2024-01-30T13:53:01;6.88;;;2.70;;
42726;SDS011;28372;56.832;60.658;2024-01-30T13:55:33;9.27;;;4.50;;
42726;SDS011;28372;56.832;60.658;2024-01-30T13:58:01;7.03;;;2.97;;
42726;SDS011;28372;56.832;60.658;2024-01-30T14:00:29;9.32;;;3.70;;
42726;SDS011;28372;56.832;60.658;2024-01-30T14:02:58;3.45;;;1.95;;
42726;SDS011;28372;56.832;60.658;2024-01-30T14:05:28;5.07;;;1.80;;
42726;SDS011;28372;56.832;60.658;2024-01-30T14:07:59;5.28;;;2.35;;
42726;SDS011;28372;56.832;60.658;2024-01-30T14:10:28;6.55;;;3.15;;
42726;SDS011;28372;56.832;60.658;2024-01-30T14:12:59;7.50;;;2.83;;
42726;SDS011;28372;56.832;60.658;2024-01-30T14:15:27;3.97;;;1.83;;
42726;SDS011;28372;56.832;60.658;2024-01-30T14:17:56;6.18;;;1.95;;
42726;SDS011;28372;56.832;60.658;2024-01-30T14:20:26;8.32;;;3.72;;
42726;SDS011;28372;56.832;60.658;2024-01-30T14:22:56;6.45;;;2.70;;
42726;SDS011;28372;56.832;60.658;2024-01-30T14:25:24;7.13;;;2.28;;
42726;SDS011;28372;56.832;60.658;2024-01-30T14:27:55;6.95;;;3.72;;
42726;SDS011;28372;56.832;60.658;2024-01-30T14:30:24;3.83;;;1.88;;
42726;SDS011;28372;56.832;60.658;2024-01-30T14:32:52;6.47;;;2.80;;
42726;SDS011;28372;56.832;60.658;2024-01-30T14:35:20;7.35;;;3.30;;
42726;SDS011;28372;56.832;60.658;2024-01-30T14:37:48;10.50;;;4.75;;
42726;SDS011;28372;56.832;60.658;2024-01-30T14:40:17;8.40;;;3.17;;
42726;SDS011;28372;56.832;60.658;2024-01-30T14:42:45;6.10;;;2.42;;
42726;SDS011;28372;56.832;60.658;2024-01-30T14:45:15;6.70;;;3.10;;